Saint Clairsville, Pennsylvania
Current Conditions -  °F | °C
As of 7:53 PM on Sunday 21 Dec 2014 (Local Time) from KAOO Reporting Station
Clear Clear  
Wind Chill: 26°   Ceiling: Unl
Heat Index: 26°   Visibility: 10mi
Dew Point: 20°   Wind: 0mph
Humidity: 78%   Direction: NA
Pressure: 30.24"   Gusts: NA
Location:  40.1591°N, 78.5079°W
Report Text: KAOO 220053Z AUTO 00000KT 10SM CLR M03/M07 A3024 RMK AO2 SLP262 T10331067
Loading
Personal Weather Stations






























Interactive Weather Map New forecast layout! Learn more

10-Day Weather Forecast

Advertisements
Track Severe Weather on mobile